createdAt,value
2018-06-11T00:02:27.654Z,18.20
2018-06-11T00:04:58.864Z,18.20
2018-06-11T00:07:30.140Z,18.20
2018-06-11T00:10:01.879Z,18.10
2018-06-11T00:12:33.466Z,18.10
2018-06-11T00:15:04.877Z,18.10
2018-06-11T00:17:36.447Z,18.00
2018-06-11T00:20:07.441Z,18.00
2018-06-11T00:22:39.352Z,17.80
2018-06-11T00:25:10.582Z,17.70
2018-06-11T00:27:41.721Z,17.60
2018-06-11T00:30:12.795Z,17.60
2018-06-11T00:32:43.957Z,17.60
2018-06-11T00:35:15.023Z,17.70
2018-06-11T00:37:45.978Z,17.70
2018-06-11T00:40:17.266Z,17.70
2018-06-11T00:42:48.240Z,17.60
2018-06-11T00:45:19.092Z,17.60
2018-06-11T00:47:50.198Z,17.60
2018-06-11T00:50:21.165Z,17.60
2018-06-11T00:55:22.884Z,17.60
2018-06-11T00:57:53.776Z,17.50
2018-06-11T01:00:25.095Z,17.50
2018-06-11T01:02:56.157Z,17.40
2018-06-11T01:05:27.418Z,17.50
2018-06-11T01:07:59.062Z,17.40
2018-06-11T01:10:30.053Z,17.40
2018-06-11T01:13:02.122Z,17.40
2018-06-11T01:18:03.765Z,17.30
2018-06-11T01:20:34.760Z,17.30
2018-06-11T01:23:06.277Z,17.20
2018-06-11T01:25:37.290Z,17.10
2018-06-11T01:28:08.218Z,17.10
2018-06-11T01:30:39.309Z,17.10
2018-06-11T01:33:10.278Z,17.10
2018-06-11T01:35:42.445Z,17.10
2018-06-11T01:38:13.283Z,17.10
2018-06-11T01:40:44.456Z,17.10
2018-06-11T01:43:15.604Z,17.10
2018-06-11T01:45:46.559Z,17.00
2018-06-11T01:48:17.508Z,17.00
2018-06-11T01:50:48.744Z,17.10
2018-06-11T01:53:19.987Z,17.10
2018-06-11T01:55:51.395Z,17.00
2018-06-11T01:58:23.708Z,17.00
2018-06-11T02:00:54.993Z,17.00
2018-06-11T02:03:27.098Z,16.90
2018-06-11T02:05:58.379Z,16.90
2018-06-11T02:08:29.408Z,16.90
2018-06-11T02:11:01.301Z,16.90
2018-06-11T02:13:32.491Z,16.80
2018-06-11T02:16:03.401Z,16.70
2018-06-11T02:18:34.499Z,16.70
2018-06-11T02:21:05.551Z,16.70
2018-06-11T02:23:36.586Z,16.70
2018-06-11T02:26:07.562Z,16.60
2018-06-11T02:28:38.676Z,16.60
2018-06-11T02:31:10.050Z,16.60
2018-06-11T02:33:41.240Z,16.50
2018-06-11T02:36:12.495Z,16.50
2018-06-11T02:38:43.524Z,16.40
2018-06-11T02:41:14.614Z,16.40
2018-06-11T02:43:46.929Z,16.40
2018-06-11T02:46:18.251Z,16.40
2018-06-11T02:48:50.268Z,16.30
2018-06-11T02:51:21.580Z,16.30
2018-06-11T02:53:52.949Z,16.30
2018-06-11T02:56:25.067Z,16.30
2018-06-11T02:58:56.249Z,16.30
2018-06-11T03:01:27.658Z,16.30
2018-06-11T03:03:58.902Z,16.30
2018-06-11T03:06:30.053Z,16.20
2018-06-11T03:09:00.978Z,16.20
2018-06-11T03:11:34.500Z,16.20
2018-06-11T03:14:05.821Z,16.10
2018-06-11T03:16:37.019Z,16.10
2018-06-11T03:19:08.219Z,16.10
2018-06-11T03:21:39.295Z,16.10
2018-06-11T03:26:40.996Z,15.90
2018-06-11T03:29:11.996Z,15.80
2018-06-11T03:31:42.910Z,15.80
2018-06-11T03:34:14.799Z,15.80
2018-06-11T03:39:16.325Z,15.80
2018-06-11T03:41:47.541Z,15.80
2018-06-11T03:44:18.575Z,15.80
2018-06-11T03:46:49.558Z,15.80
2018-06-11T03:49:21.557Z,15.80
2018-06-11T03:51:52.364Z,15.80
2018-06-11T03:54:23.307Z,15.80
2018-06-11T03:56:54.587Z,15.80
2018-06-11T03:59:26.971Z,15.80
2018-06-11T04:01:58.007Z,15.90
2018-06-11T04:04:28.993Z,16.00
2018-06-11T04:07:00.079Z,16.00
2018-06-11T04:09:31.171Z,16.00
2018-06-11T04:12:02.381Z,16.00
2018-06-11T04:14:33.392Z,16.10
2018-06-11T04:17:05.125Z,16.20
2018-06-11T04:19:36.182Z,16.10
2018-06-11T04:22:07.474Z,16.20
2018-06-11T04:24:38.487Z,16.10
2018-06-11T04:27:09.548Z,16.10
2018-06-11T04:29:41.007Z,16.10
2018-06-11T04:34:43.867Z,16.00
2018-06-11T04:37:14.708Z,16.10
2018-06-11T04:39:45.846Z,16.10
2018-06-11T04:42:18.104Z,16.10
2018-06-11T04:44:49.193Z,16.10
2018-06-11T04:49:50.821Z,16.40
2018-06-11T04:54:52.468Z,16.40
2018-06-11T04:57:23.811Z,16.40
2018-06-11T04:59:54.793Z,16.40
2018-06-11T05:02:25.944Z,16.50
2018-06-11T05:04:56.907Z,16.70
2018-06-11T05:07:28.063Z,16.80
2018-06-11T05:09:59.027Z,16.90
2018-06-11T05:12:29.990Z,17.00
2018-06-11T05:15:00.973Z,17.10
2018-06-11T05:17:33.493Z,17.10
2018-06-11T05:20:04.643Z,17.30
2018-06-11T05:22:35.506Z,17.50
2018-06-11T05:25:06.702Z,17.70
2018-06-11T05:27:37.587Z,17.80
2018-06-11T05:30:08.829Z,18.10
2018-06-11T05:32:40.841Z,18.40
2018-06-11T05:35:12.738Z,18.60
2018-06-11T05:37:43.874Z,18.60
2018-06-11T05:40:14.936Z,18.60
2018-06-11T05:42:46.152Z,18.80
2018-06-11T05:47:48.303Z,19.00
2018-06-11T05:50:19.570Z,19.10
2018-06-11T05:52:50.934Z,19.20
2018-06-11T05:55:22.663Z,19.20
2018-06-11T05:57:56.278Z,19.30
2018-06-11T06:00:27.851Z,19.40
2018-06-11T06:02:59.948Z,19.60
2018-06-11T06:05:32.606Z,19.80
2018-06-11T06:08:04.400Z,19.80
2018-06-11T06:10:35.498Z,20.00
2018-06-11T06:13:06.674Z,20.20
2018-06-11T06:15:39.593Z,20.60
2018-06-11T06:18:10.730Z,20.70
2018-06-11T06:20:42.173Z,20.90
2018-06-11T06:23:13.731Z,21.10
2018-06-11T06:25:45.731Z,21.40
2018-06-11T06:28:17.015Z,21.60
2018-06-11T06:30:49.245Z,22.00
2018-06-11T06:33:20.526Z,22.30
2018-06-11T06:35:52.200Z,22.80
2018-06-11T06:38:23.650Z,23.30
2018-06-11T06:40:54.841Z,23.60
2018-06-11T06:43:26.252Z,23.80
2018-06-11T06:45:58.742Z,24.10
2018-06-11T06:48:30.062Z,24.50
2018-06-11T06:51:01.664Z,24.70
2018-06-11T06:53:32.564Z,24.70
2018-06-11T06:56:03.798Z,24.90
2018-06-11T06:58:37.123Z,24.90
2018-06-11T07:01:08.348Z,25.00
2018-06-11T07:03:39.593Z,25.10
2018-06-11T07:06:12.262Z,25.30
2018-06-11T07:08:43.856Z,25.60
2018-06-11T07:11:16.128Z,25.80
2018-06-11T07:13:48.085Z,25.80
2018-06-11T07:16:20.314Z,25.80
2018-06-11T07:18:51.821Z,26.20
2018-06-11T07:21:23.209Z,26.40
2018-06-11T07:23:54.589Z,26.80
2018-06-11T07:26:26.550Z,27.00
2018-06-11T07:28:58.489Z,27.40
2018-06-11T07:31:30.040Z,27.40
2018-06-11T07:34:01.423Z,27.50
2018-06-11T07:36:33.201Z,27.50
2018-06-11T07:39:07.437Z,27.70
2018-06-11T07:44:11.589Z,27.90
2018-06-11T07:46:42.936Z,28.70
2018-06-11T07:49:15.703Z,28.80
2018-06-11T07:51:47.747Z,28.80
2018-06-11T07:56:50.279Z,29.30
2018-06-11T07:59:22.754Z,29.00
2018-06-11T08:01:54.292Z,29.40
2018-06-11T08:04:25.816Z,29.80
2018-06-11T08:06:57.939Z,30.10
2018-06-11T08:09:29.382Z,30.20
2018-06-11T08:12:09.613Z,30.10
2018-06-11T08:14:41.366Z,30.00
2018-06-11T08:17:13.297Z,30.10
2018-06-11T08:19:45.096Z,30.50
2018-06-11T08:22:16.596Z,30.30
2018-06-11T08:24:47.891Z,30.60
2018-06-11T08:27:20.406Z,31.10
2018-06-11T08:29:51.819Z,31.30
2018-06-11T08:32:23.478Z,31.60
2018-06-11T08:34:54.694Z,31.60
2018-06-11T08:37:26.580Z,30.80
2018-06-11T08:39:57.835Z,30.70
2018-06-11T08:42:29.241Z,30.60
2018-06-11T08:45:01.345Z,30.70
2018-06-11T08:47:32.340Z,31.30
2018-06-11T08:50:03.639Z,31.60
2018-06-11T08:52:34.936Z,31.70
2018-06-11T08:55:06.253Z,31.60
2018-06-11T08:57:37.685Z,31.80
2018-06-11T09:00:09.940Z,32.40
2018-06-11T09:02:41.999Z,33.20
2018-06-11T09:05:13.279Z,33.30
2018-06-11T09:07:45.239Z,33.50
2018-06-11T09:10:17.563Z,33.50
2018-06-11T09:12:48.867Z,33.80
2018-06-11T09:15:21.844Z,34.40
2018-06-11T09:17:53.064Z,35.00
2018-06-11T09:20:24.171Z,34.50
2018-06-11T09:22:55.334Z,33.60
2018-06-11T09:25:26.642Z,34.00
2018-06-11T09:27:58.813Z,34.30
2018-06-11T09:30:30.892Z,33.60
2018-06-11T09:33:01.968Z,33.10
2018-06-11T09:35:33.165Z,33.40
2018-06-11T09:40:36.402Z,32.40
2018-06-11T09:45:40.250Z,34.50
2018-06-11T09:48:11.826Z,34.70
2018-06-11T09:50:43.135Z,35.70
2018-06-11T09:53:14.514Z,35.60
2018-06-11T09:55:45.893Z,34.50
2018-06-11T09:58:17.544Z,33.60
2018-06-11T10:00:49.841Z,33.50
2018-06-11T10:03:21.579Z,33.00
2018-06-11T10:05:53.707Z,33.50
2018-06-11T10:22:49.751Z,35.50
2018-06-11T10:25:22.421Z,35.10
2018-06-11T10:27:54.470Z,34.90
2018-06-11T10:30:27.491Z,34.90
2018-06-11T10:32:58.841Z,34.30
2018-06-11T10:35:30.033Z,34.10
2018-06-11T10:38:01.182Z,33.30
2018-06-11T10:40:32.791Z,33.60
2018-06-11T10:43:04.184Z,34.40
2018-06-11T10:45:35.192Z,34.70
2018-06-11T10:48:06.784Z,34.90
2018-06-11T10:50:38.819Z,35.30
2018-06-11T10:53:10.601Z,35.30
2018-06-11T10:55:41.919Z,35.60
2018-06-11T10:58:13.417Z,35.60
2018-06-11T11:00:44.851Z,35.80
2018-06-11T11:03:16.699Z,35.90
2018-06-11T11:05:48.630Z,36.30
2018-06-11T11:08:20.953Z,36.40
2018-06-11T11:10:52.207Z,36.30
2018-06-11T11:13:23.649Z,36.40
2018-06-11T11:15:55.058Z,35.40
2018-06-11T11:18:26.563Z,34.10
2018-06-11T11:20:58.059Z,33.80
2018-06-11T11:23:29.461Z,34.40
2018-06-11T11:26:01.574Z,33.60
2018-06-11T11:28:32.468Z,33.30
2018-06-11T11:33:34.270Z,34.90
2018-06-11T11:36:05.905Z,34.50
2018-06-11T11:38:38.833Z,34.90
2018-06-11T11:41:10.645Z,34.60
2018-06-11T11:43:43.044Z,34.10
2018-06-11T11:46:14.250Z,34.20
2018-06-11T11:48:45.682Z,34.80
2018-06-11T11:51:16.799Z,34.50
2018-06-11T11:53:48.254Z,35.00
2018-06-11T11:56:21.197Z,35.50
2018-06-11T11:58:53.227Z,35.40
2018-06-11T12:01:24.980Z,35.90
2018-06-11T12:03:56.297Z,36.50
2018-06-11T12:06:28.438Z,34.90
2018-06-11T12:08:59.692Z,34.40
2018-06-11T12:11:30.914Z,34.90
2018-06-11T12:14:02.960Z,35.70
2018-06-11T12:16:36.116Z,34.60
2018-06-11T12:19:07.386Z,32.90
2018-06-11T12:21:38.791Z,33.00
2018-06-11T12:24:10.650Z,33.90
2018-06-11T12:26:42.384Z,34.50
2018-06-11T12:29:13.568Z,35.10
2018-06-11T12:31:45.328Z,35.00
2018-06-11T12:34:17.472Z,35.50
2018-06-11T12:36:48.761Z,36.10
2018-06-11T12:39:20.967Z,35.20
2018-06-11T12:44:24.375Z,36.20
2018-06-11T12:46:55.269Z,36.70
2018-06-11T12:54:29.083Z,36.70
2018-06-11T12:57:00.205Z,35.10
2018-06-11T12:59:31.818Z,35.00
2018-06-11T13:04:35.568Z,34.70
2018-06-11T13:07:07.248Z,33.90
2018-06-11T13:09:39.568Z,33.80
2018-06-11T13:12:10.836Z,35.00
2018-06-11T13:14:42.085Z,34.90
2018-06-11T13:17:13.244Z,34.20
2018-06-11T13:19:44.548Z,34.00
2018-06-11T13:22:16.324Z,35.10
2018-06-11T13:24:47.908Z,36.10
2018-06-11T13:27:19.818Z,34.90
2018-06-11T13:29:51.088Z,34.30
2018-06-11T13:32:22.390Z,33.60
2018-06-11T13:34:54.465Z,34.50
2018-06-11T13:37:26.062Z,34.60
2018-06-11T13:39:57.920Z,35.30
2018-06-11T13:42:30.040Z,35.70
2018-06-11T13:45:01.706Z,35.60
2018-06-11T13:47:32.666Z,35.30
2018-06-11T13:50:04.061Z,34.90
2018-06-11T13:52:36.483Z,34.10
2018-06-11T13:55:08.373Z,34.10
2018-06-11T13:57:39.572Z,34.60
2018-06-11T14:00:11.817Z,34.90
2018-06-11T14:02:43.249Z,33.10
2018-06-11T14:05:19.910Z,33.40
2018-06-11T14:07:52.224Z,33.30
2018-06-11T14:10:23.253Z,33.90
2018-06-11T14:12:56.369Z,33.70
2018-06-11T14:15:28.151Z,33.70
2018-06-11T14:18:00.140Z,33.20
2018-06-11T14:20:31.257Z,33.50
2018-06-11T14:23:02.733Z,33.90
2018-06-11T14:25:34.649Z,33.80
2018-06-11T14:28:06.087Z,33.40
2018-06-11T14:30:39.122Z,32.00
2018-06-11T14:33:11.369Z,31.60
2018-06-11T14:35:42.983Z,31.90
2018-06-11T14:38:14.511Z,31.90
2018-06-11T14:40:45.615Z,32.40
2018-06-11T14:43:17.167Z,32.70
2018-06-11T14:45:48.893Z,32.80
2018-06-11T14:48:20.344Z,32.80
2018-06-11T14:50:51.647Z,33.20
2018-06-11T14:53:23.538Z,32.40
2018-06-11T14:55:54.877Z,32.50
2018-06-11T14:58:26.275Z,32.20
2018-06-11T15:00:58.848Z,32.20
2018-06-11T15:03:29.983Z,31.70
2018-06-11T15:06:01.318Z,31.00
2018-06-11T15:08:32.639Z,31.20
2018-06-11T15:11:04.050Z,31.00
2018-06-11T15:13:35.511Z,31.10
2018-06-11T15:16:08.461Z,31.20
2018-06-11T15:21:11.037Z,31.00
2018-06-11T15:23:43.647Z,30.70
2018-06-11T15:26:15.988Z,31.10
2018-06-11T15:28:48.207Z,31.50
2018-06-11T15:31:19.870Z,31.30
2018-06-11T15:33:52.517Z,30.90
2018-06-11T15:36:24.049Z,31.00
2018-06-11T15:38:56.728Z,30.90
2018-06-11T15:41:28.206Z,31.00
2018-06-11T15:44:00.269Z,31.20
2018-06-11T15:46:31.653Z,31.20
2018-06-11T15:49:02.981Z,31.10
2018-06-11T15:54:07.081Z,30.90
2018-06-11T15:56:38.487Z,30.90
2018-06-11T15:59:11.295Z,31.10
2018-06-11T16:01:42.659Z,30.70
2018-06-11T16:04:14.057Z,30.80
2018-06-11T16:11:47.463Z,31.30
2018-06-11T16:14:18.617Z,31.10
2018-06-11T16:16:49.833Z,30.90
2018-06-11T16:19:21.105Z,31.10
2018-06-11T16:21:52.999Z,30.90
2018-06-11T16:24:24.481Z,31.00
2018-06-11T16:26:55.969Z,30.90
2018-06-11T16:29:27.562Z,30.60
2018-06-11T16:31:59.005Z,30.60
2018-06-11T16:34:30.857Z,30.60
2018-06-11T16:37:03.771Z,30.60
2018-06-11T16:39:35.868Z,30.50
2018-06-11T16:42:07.366Z,30.50
2018-06-11T16:44:39.354Z,30.40
2018-06-11T16:47:11.773Z,30.50
2018-06-11T16:49:43.533Z,30.50
2018-06-11T16:52:16.556Z,30.60
2018-06-11T16:54:48.730Z,30.60
2018-06-11T16:57:20.814Z,30.20
2018-06-11T16:59:52.117Z,30.30
2018-06-11T17:02:24.612Z,30.10
2018-06-11T17:04:56.156Z,30.10
2018-06-11T17:07:27.534Z,30.10
2018-06-11T17:09:59.965Z,30.20
2018-06-11T17:12:32.134Z,30.10
2018-06-11T17:15:03.723Z,29.90
2018-06-11T17:17:35.586Z,30.10
2018-06-11T17:20:07.562Z,30.20
2018-06-11T17:22:40.965Z,30.10
2018-06-11T17:25:13.542Z,30.00
2018-06-11T17:27:45.803Z,29.90
2018-06-11T17:30:18.522Z,29.70
2018-06-11T17:32:50.245Z,29.60
2018-06-11T17:35:23.589Z,29.50
2018-06-11T17:37:56.962Z,29.40
2018-06-11T17:40:28.954Z,29.40
2018-06-11T17:43:00.847Z,29.20
2018-06-11T17:45:33.259Z,29.10
2018-06-11T17:48:04.671Z,29.00
2018-06-11T17:50:36.040Z,28.90
2018-06-11T17:53:07.538Z,28.90
2018-06-11T17:55:39.011Z,28.80
2018-06-11T17:58:10.371Z,28.90
2018-06-11T18:00:41.731Z,28.90
2018-06-11T18:03:14.054Z,28.80
2018-06-11T18:05:46.484Z,28.80
2018-06-11T18:08:18.367Z,28.80
2018-06-11T18:10:50.508Z,28.80
2018-06-11T18:13:24.410Z,28.60
2018-06-11T18:15:56.700Z,28.50
2018-06-11T18:18:28.846Z,28.40
2018-06-11T18:21:02.287Z,28.30
2018-06-11T18:23:35.918Z,28.20
2018-06-11T18:26:09.312Z,28.10
2018-06-11T18:28:41.683Z,28.10
2018-06-11T18:31:14.353Z,27.90
2018-06-11T18:38:53.105Z,27.50
2018-06-11T18:41:26.329Z,27.20
2018-06-11T18:44:00.091Z,27.00
2018-06-11T18:46:34.072Z,26.80
2018-06-11T18:51:41.404Z,26.50
2018-06-11T18:54:14.606Z,26.50
2018-06-11T18:56:48.144Z,26.50
2018-06-11T18:59:21.129Z,26.30
2018-06-11T19:01:53.738Z,26.20
2018-06-11T19:04:26.828Z,26.20
2018-06-11T19:06:59.633Z,26.10
2018-06-11T19:09:32.717Z,26.00
2018-06-11T19:12:05.470Z,25.90
2018-06-11T19:14:40.588Z,25.70
2018-06-11T19:17:13.231Z,25.60
2018-06-11T19:22:20.975Z,25.50
2018-06-11T19:24:54.356Z,25.40
2018-06-11T19:27:30.713Z,25.10
2018-06-11T19:30:03.682Z,25.00
2018-06-11T19:35:09.072Z,24.90
2018-06-11T19:37:42.437Z,24.80
2018-06-11T19:40:20.023Z,24.80
2018-06-11T19:42:53.404Z,24.80
2018-06-11T19:45:26.753Z,24.70
2018-06-11T19:48:02.096Z,24.60
2018-06-11T19:50:37.004Z,24.70
2018-06-11T19:58:15.624Z,24.70
2018-06-11T20:00:49.070Z,24.70
2018-06-11T20:03:23.500Z,24.40
2018-06-11T20:05:57.901Z,24.10
2018-06-11T20:11:06.044Z,24.00
2018-06-11T20:13:40.710Z,23.90
2018-06-11T20:16:16.740Z,23.80
2018-06-11T20:18:53.576Z,23.90
2018-06-11T20:21:26.600Z,23.90
2018-06-11T20:24:00.599Z,24.00
2018-06-11T20:26:36.987Z,24.00
2018-06-11T20:29:10.159Z,24.00
2018-06-11T20:31:45.190Z,24.00
2018-06-11T20:34:17.900Z,23.90
2018-06-11T20:36:51.210Z,23.90
2018-06-11T20:39:25.464Z,24.00
2018-06-11T20:41:58.941Z,24.00
2018-06-11T20:44:32.352Z,24.00
2018-06-11T20:47:05.556Z,24.00
2018-06-11T20:49:38.580Z,24.00
2018-06-11T20:52:12.056Z,24.00
2018-06-11T20:54:44.809Z,24.00
2018-06-11T20:57:17.931Z,24.00
2018-06-11T21:02:22.238Z,24.00
2018-06-11T21:04:55.893Z,23.90
2018-06-11T21:10:01.272Z,23.70
2018-06-11T21:12:32.953Z,23.50
2018-06-11T21:15:04.916Z,23.40
2018-06-11T21:17:36.305Z,23.30
2018-06-11T21:20:07.786Z,23.20
2018-06-11T21:22:41.347Z,23.00
2018-06-11T21:25:13.791Z,23.00
2018-06-11T21:27:45.154Z,23.00
2018-06-11T21:30:16.313Z,23.10
2018-06-11T21:32:48.304Z,23.00
2018-06-11T21:35:19.646Z,22.80
2018-06-11T21:37:51.588Z,22.80
2018-06-11T21:40:23.470Z,22.70
2018-06-11T21:42:54.528Z,22.50
2018-06-11T21:45:26.004Z,22.50
2018-06-11T21:47:57.264Z,22.50
2018-06-11T21:50:28.243Z,22.60
2018-06-11T21:52:59.467Z,22.60
2018-06-11T21:55:31.248Z,22.50
2018-06-11T21:58:03.179Z,22.50
2018-06-11T22:00:34.877Z,22.50
2018-06-11T22:03:07.321Z,22.50
2018-06-11T22:05:39.123Z,22.60
2018-06-11T22:08:10.703Z,22.60
2018-06-11T22:10:42.311Z,22.60
2018-06-11T22:13:14.498Z,22.60
2018-06-11T22:15:45.788Z,22.60
2018-06-11T22:18:17.361Z,22.50
2018-06-11T22:20:48.929Z,22.50
2018-06-11T22:23:20.687Z,22.50
2018-06-11T22:25:52.352Z,22.50
2018-06-11T22:28:23.910Z,22.50
2018-06-11T22:30:57.325Z,22.40
2018-06-11T22:33:29.760Z,22.40
2018-06-11T22:36:01.245Z,22.40
2018-06-11T22:38:32.542Z,22.40
2018-06-11T22:41:03.763Z,22.40
2018-06-11T22:43:34.856Z,22.40
2018-06-11T22:46:06.635Z,22.40
2018-06-11T22:48:39.918Z,22.40
2018-06-11T22:51:11.256Z,22.50
2018-06-11T22:53:42.704Z,22.50
2018-06-11T22:58:44.914Z,22.40
2018-06-11T23:01:16.184Z,22.50
2018-06-11T23:06:18.881Z,22.50
2018-06-11T23:08:50.543Z,22.50
2018-06-11T23:11:21.428Z,22.40
2018-06-11T23:13:52.489Z,22.20
2018-06-11T23:16:24.399Z,22.20
2018-06-11T23:18:55.254Z,22.00
2018-06-11T23:21:26.541Z,21.70
2018-06-11T23:23:58.632Z,21.70
2018-06-11T23:26:30.139Z,21.60
2018-06-11T23:29:02.134Z,21.60
2018-06-11T23:31:33.517Z,21.60
2018-06-11T23:34:04.510Z,21.60
2018-06-11T23:36:35.534Z,21.60
2018-06-11T23:39:08.354Z,21.50
2018-06-11T23:41:39.427Z,21.50
2018-06-11T23:44:10.429Z,21.50
2018-06-11T23:46:41.708Z,21.50
2018-06-11T23:49:13.814Z,21.40
2018-06-11T23:51:44.672Z,21.40
2018-06-11T23:54:15.726Z,21.30
2018-06-11T23:56:46.823Z,21.30
2018-06-11T23:59:18.505Z,21.20
